createdAt,value
2023-05-01T00:02:34.177Z,54.83
2023-05-01T00:05:26.363Z,54.80
2023-05-01T00:08:18.410Z,55.13
2023-05-01T00:11:12.447Z,55.24
2023-05-01T00:14:04.714Z,55.45
2023-05-01T00:16:56.825Z,55.49
2023-05-01T00:19:52.370Z,55.67
2023-05-01T00:22:44.451Z,55.72
2023-05-01T00:25:36.417Z,55.79
2023-05-01T00:28:28.359Z,55.71
2023-05-01T00:31:20.360Z,55.85
2023-05-01T00:34:12.610Z,55.82
2023-05-01T00:37:04.644Z,55.93
2023-05-01T00:39:56.916Z,56.11
2023-05-01T00:42:49.315Z,56.10
2023-05-01T00:45:44.284Z,56.46
2023-05-01T00:48:36.708Z,56.49
2023-05-01T00:51:30.206Z,56.54
2023-05-01T00:54:23.095Z,56.77
2023-05-01T00:57:05.277Z,56.87
2023-05-01T00:59:57.473Z,56.92
2023-05-01T01:02:50.054Z,56.95
2023-05-01T01:05:47.675Z,57.11
2023-05-01T01:08:45.222Z,57.11
2023-05-01T01:11:44.036Z,57.17
2023-05-01T01:14:43.017Z,57.37
2023-05-01T01:17:46.776Z,57.54
2023-05-01T01:20:46.383Z,57.83
2023-05-01T01:24:04.235Z,57.88
2023-05-01T01:27:31.820Z,57.89
2023-05-01T01:31:15.289Z,57.96
2023-05-01T01:34:14.399Z,58.18
2023-05-01T01:37:15.526Z,58.08
2023-05-01T01:40:12.642Z,58.17
2023-05-01T01:43:08.100Z,58.20
2023-05-01T01:46:04.262Z,58.21
2023-05-01T01:48:59.298Z,58.25
2023-05-01T01:51:53.016Z,58.35
2023-05-01T01:54:54.030Z,58.38
2023-05-01T01:57:48.155Z,58.53
2023-05-01T02:00:41.941Z,58.53
2023-05-01T02:03:34.637Z,58.64
2023-05-01T02:06:28.800Z,58.71
2023-05-01T02:09:23.065Z,58.85
2023-05-01T02:12:17.796Z,58.90
2023-05-01T02:15:12.776Z,58.93
2023-05-01T02:18:06.491Z,59.00
2023-05-01T02:21:00.803Z,59.08
2023-05-01T02:23:51.283Z,59.01
2023-05-01T02:26:47.879Z,59.10
2023-05-01T02:29:39.820Z,59.21
2023-05-01T02:32:32.069Z,59.27
2023-05-01T02:35:24.162Z,59.40
2023-05-01T02:38:16.989Z,59.40
2023-05-01T02:41:09.894Z,59.38
2023-05-01T02:44:06.594Z,59.56
2023-05-01T02:46:59.843Z,59.59
2023-05-01T02:49:52.630Z,59.51
2023-05-01T02:52:45.836Z,59.75
2023-05-01T02:55:38.056Z,59.98
2023-05-01T02:58:33.854Z,60.28
2023-05-01T03:01:26.266Z,60.40
2023-05-01T03:04:18.397Z,60.59
2023-05-01T03:07:10.478Z,60.62
2023-05-01T03:09:44.951Z,60.60
2023-05-01T03:12:37.071Z,60.80
2023-05-01T03:15:29.054Z,60.98
2023-05-01T03:18:21.078Z,61.24
2023-05-01T03:21:13.673Z,61.24
2023-05-01T03:24:06.178Z,61.36
2023-05-01T03:26:58.197Z,61.30
2023-05-01T03:29:50.458Z,61.16
2023-05-01T03:32:42.533Z,61.51
2023-05-01T03:35:34.654Z,61.80
2023-05-01T03:38:27.197Z,62.06
2023-05-01T03:41:19.258Z,62.04
2023-05-01T03:44:11.255Z,62.03
2023-05-01T03:47:03.324Z,62.06
2023-05-01T03:49:55.835Z,62.17
2023-05-01T03:52:48.064Z,62.20
2023-05-01T03:55:40.662Z,62.22
2023-05-01T03:58:32.656Z,61.95
2023-05-01T04:01:24.679Z,62.13
2023-05-01T04:04:16.869Z,62.25
2023-05-01T04:07:09.351Z,62.55
2023-05-01T04:10:01.331Z,62.51
2023-05-01T04:12:53.520Z,62.43
2023-05-01T04:15:48.058Z,62.49
2023-05-01T04:18:40.024Z,62.35
2023-05-01T04:21:32.051Z,62.54
2023-05-01T04:24:24.075Z,62.43
2023-05-01T04:27:16.127Z,62.36
2023-05-01T04:30:09.647Z,62.33
2023-05-01T04:33:01.885Z,62.18
2023-05-01T04:35:54.009Z,62.17
2023-05-01T04:38:46.008Z,62.23
2023-05-01T04:41:38.113Z,62.20
2023-05-01T04:44:30.627Z,62.21
2023-05-01T04:47:22.556Z,62.23
2023-05-01T04:50:14.776Z,62.26
2023-05-01T04:53:06.811Z,62.15
2023-05-01T04:55:58.789Z,62.07
2023-05-01T04:58:50.896Z,62.02
2023-05-01T05:01:42.938Z,61.96
2023-05-01T05:04:34.985Z,61.69
2023-05-01T05:07:27.201Z,61.36
2023-05-01T05:10:19.282Z,60.31
2023-05-01T05:13:11.330Z,60.07
2023-05-01T05:16:03.467Z,59.33
2023-05-01T05:18:58.487Z,59.75
2023-05-01T05:21:50.475Z,60.59
2023-05-01T05:24:42.519Z,60.70
2023-05-01T05:27:37.940Z,59.64
2023-05-01T05:30:30.204Z,58.54
2023-05-01T05:33:22.767Z,57.53
2023-05-01T05:36:14.760Z,56.61
2023-05-01T05:39:06.792Z,55.26
2023-05-01T05:42:00.755Z,53.61
2023-05-01T05:44:53.036Z,52.20
2023-05-01T05:47:45.082Z,50.99
2023-05-01T05:50:37.233Z,49.25
2023-05-01T05:53:29.338Z,47.54
2023-05-01T05:56:21.327Z,46.17
2023-05-01T05:59:14.467Z,45.53
2023-05-01T06:02:08.590Z,43.87
2023-05-01T06:05:00.629Z,43.27
2023-05-01T06:07:52.638Z,42.25
2023-05-01T06:10:46.364Z,41.11
2023-05-01T06:13:37.707Z,39.32
2023-05-01T06:16:29.931Z,38.01
2023-05-01T06:19:22.233Z,36.57
2023-05-01T06:22:14.234Z,35.15
2023-05-01T06:25:07.814Z,34.99
2023-05-01T06:28:00.019Z,34.51
2023-05-01T06:30:51.988Z,33.94
2023-05-01T06:33:43.923Z,33.29
2023-05-01T06:36:36.048Z,33.03
2023-05-01T06:39:28.029Z,32.66
2023-05-01T06:42:21.465Z,32.04
2023-05-01T06:45:13.688Z,30.81
2023-05-01T06:48:06.301Z,30.50
2023-05-01T06:50:58.553Z,30.10
2023-05-01T06:53:50.529Z,29.78
2023-05-01T06:56:43.144Z,30.56
2023-05-01T06:59:35.126Z,30.41
2023-05-01T07:02:27.188Z,30.80
2023-05-01T07:05:19.602Z,31.34
2023-05-01T07:08:11.672Z,31.74
2023-05-01T07:11:03.818Z,32.42
2023-05-01T07:13:56.186Z,32.88
2023-05-01T07:16:48.238Z,33.51
2023-05-01T07:19:40.270Z,34.06
2023-05-01T07:22:32.287Z,34.52
2023-05-01T07:25:24.996Z,34.92
2023-05-01T07:28:18.104Z,34.41
2023-05-01T07:31:12.110Z,34.85
2023-05-01T07:34:04.143Z,35.13
2023-05-01T07:36:56.395Z,35.18
2023-05-01T07:39:48.394Z,35.21
2023-05-01T07:42:40.458Z,34.94
2023-05-01T07:45:32.515Z,35.02
2023-05-01T07:48:24.777Z,34.91
2023-05-01T07:51:18.398Z,35.08
2023-05-01T07:54:08.646Z,35.21
2023-05-01T07:57:01.767Z,35.78
2023-05-01T07:59:57.680Z,36.14
2023-05-01T08:02:49.942Z,35.24
2023-05-01T08:05:43.408Z,35.77
2023-05-01T08:08:35.397Z,35.68
2023-05-01T08:11:29.395Z,35.31
2023-05-01T08:14:17.603Z,35.87
2023-05-01T08:17:09.730Z,35.61
2023-05-01T08:20:04.391Z,34.98
2023-05-01T08:22:56.418Z,35.62
2023-05-01T08:25:51.076Z,35.13
2023-05-01T08:28:43.267Z,34.53
2023-05-01T08:31:37.741Z,34.58
2023-05-01T08:34:29.852Z,33.91
2023-05-01T08:37:21.881Z,34.04
2023-05-01T08:40:15.835Z,34.13
2023-05-01T08:43:07.800Z,33.45
2023-05-01T08:46:01.771Z,33.58
2023-05-01T08:48:57.780Z,34.26
2023-05-01T08:51:52.957Z,33.28
2023-05-01T08:54:47.613Z,34.18
2023-05-01T08:57:40.476Z,33.51
2023-05-01T09:00:34.333Z,33.35
2023-05-01T09:03:28.187Z,33.26
2023-05-01T09:06:21.318Z,32.98
2023-05-01T09:09:13.322Z,32.71
2023-05-01T09:12:13.822Z,32.42
2023-05-01T09:15:07.183Z,32.61
2023-05-01T09:18:03.244Z,31.54
2023-05-01T09:20:56.253Z,31.29
2023-05-01T09:23:51.337Z,31.72
2023-05-01T09:26:43.662Z,32.13
2023-05-01T09:29:35.352Z,31.27
2023-05-01T09:32:28.934Z,31.51
2023-05-01T09:35:21.049Z,30.97
2023-05-01T09:38:17.866Z,31.71
2023-05-01T09:41:10.879Z,31.10
2023-05-01T09:44:03.136Z,30.75
2023-05-01T09:47:04.483Z,30.29
2023-05-01T09:49:59.646Z,30.60
2023-05-01T09:52:53.619Z,30.24
2023-05-01T09:56:02.967Z,30.15
2023-05-01T09:58:56.084Z,29.16
2023-05-01T10:01:50.088Z,29.64
2023-05-01T10:04:43.207Z,29.32
2023-05-01T10:07:35.791Z,29.68
2023-05-01T10:10:27.972Z,28.87
2023-05-01T10:13:20.297Z,28.50
2023-05-01T10:16:31.166Z,28.14
2023-05-01T10:19:23.437Z,28.66
2023-05-01T10:22:16.238Z,28.90
2023-05-01T10:25:11.401Z,28.07
2023-05-01T10:28:06.463Z,27.84
2023-05-01T10:30:49.793Z,27.84
2023-05-01T10:33:43.567Z,28.16
2023-05-01T10:36:42.020Z,28.24
2023-05-01T10:39:35.383Z,28.53
2023-05-01T10:42:28.888Z,28.65
2023-05-01T10:45:35.242Z,28.59
2023-05-01T10:48:58.224Z,28.27
2023-05-01T10:52:03.897Z,27.80
2023-05-01T10:55:16.653Z,27.17
2023-05-01T10:58:08.708Z,27.39
2023-05-01T11:01:33.565Z,27.23
2023-05-01T11:04:51.127Z,27.69
2023-05-01T11:07:43.585Z,27.17
2023-05-01T11:10:35.850Z,26.58
2023-05-01T11:14:02.693Z,26.38
2023-05-01T11:16:55.145Z,26.40
2023-05-01T11:19:50.275Z,26.81
2023-05-01T11:22:47.321Z,26.33
2023-05-01T11:25:39.375Z,26.34
2023-05-01T11:28:35.346Z,26.31
2023-05-01T11:31:29.113Z,26.27
2023-05-01T11:34:21.267Z,26.10
2023-05-01T11:37:13.279Z,26.60
2023-05-01T11:40:06.199Z,26.47
2023-05-01T11:43:06.908Z,27.03
2023-05-01T11:46:03.982Z,26.41
2023-05-01T11:48:57.234Z,26.92
2023-05-01T11:51:59.033Z,26.50
2023-05-01T11:54:51.349Z,26.37
2023-05-01T11:57:51.681Z,25.57
2023-05-01T12:00:44.882Z,25.00
2023-05-01T12:03:45.653Z,24.84
2023-05-01T12:06:44.565Z,24.82
2023-05-01T12:09:36.724Z,25.18
2023-05-01T12:12:28.778Z,25.22
2023-05-01T12:15:21.112Z,24.39
2023-05-01T12:18:15.364Z,23.83
2023-05-01T12:21:20.112Z,24.00
2023-05-01T12:24:14.998Z,23.99
2023-05-01T12:27:08.953Z,24.08
2023-05-01T12:30:00.937Z,24.15
2023-05-01T12:32:53.216Z,23.86
2023-05-01T12:35:35.123Z,23.92
2023-05-01T12:38:27.088Z,23.63
2023-05-01T12:41:01.901Z,23.77
2023-05-01T12:43:53.891Z,23.68
2023-05-01T12:46:47.351Z,23.25
2023-05-01T12:49:40.613Z,23.36
2023-05-01T12:52:33.375Z,23.84
2023-05-01T12:55:26.110Z,24.34
2023-05-01T12:58:18.796Z,24.21
2023-05-01T13:01:10.817Z,23.85
2023-05-01T13:04:03.076Z,23.91
2023-05-01T13:06:56.486Z,24.15
2023-05-01T13:09:58.548Z,24.24
2023-05-01T13:12:52.034Z,24.65
2023-05-01T13:15:44.919Z,24.82
2023-05-01T13:18:57.340Z,25.26
2023-05-01T13:21:52.221Z,25.25
2023-05-01T13:24:45.001Z,25.43
2023-05-01T13:27:37.878Z,25.41
2023-05-01T13:30:35.801Z,25.87
2023-05-01T13:33:29.217Z,26.06
2023-05-01T13:36:26.677Z,25.33
2023-05-01T13:39:21.993Z,25.72
2023-05-01T13:42:21.667Z,26.43
2023-05-01T13:45:19.689Z,26.30
2023-05-01T13:48:12.589Z,26.25
2023-05-01T13:51:07.195Z,26.74
2023-05-01T13:53:59.206Z,26.45
2023-05-01T13:56:51.191Z,25.99
2023-05-01T13:59:44.544Z,25.82
2023-05-01T14:02:38.324Z,26.16
2023-05-01T14:05:30.411Z,26.76
2023-05-01T14:08:28.551Z,26.90
2023-05-01T14:11:21.102Z,27.01
2023-05-01T14:14:13.345Z,26.88
2023-05-01T14:17:05.359Z,26.88
2023-05-01T14:19:57.417Z,27.09
2023-05-01T14:22:51.774Z,27.23
2023-05-01T14:25:45.047Z,27.55
2023-05-01T14:28:57.059Z,27.65
2023-05-01T14:31:49.072Z,27.87
2023-05-01T14:34:43.700Z,28.20
2023-05-01T14:37:35.822Z,28.15
2023-05-01T14:40:29.065Z,27.99
2023-05-01T14:43:22.636Z,28.05
2023-05-01T14:46:17.063Z,28.16
2023-05-01T14:49:09.157Z,28.27
2023-05-01T14:52:01.192Z,28.28
2023-05-01T14:54:53.484Z,27.76
2023-05-01T14:57:48.506Z,28.02
2023-05-01T15:00:40.497Z,28.17
2023-05-01T15:03:32.871Z,28.09
2023-05-01T15:06:25.692Z,28.13
2023-05-01T15:09:17.684Z,28.64
2023-05-01T15:12:10.198Z,28.70
2023-05-01T15:15:02.391Z,28.79
2023-05-01T15:17:54.388Z,28.74
2023-05-01T15:20:26.950Z,28.28
2023-05-01T15:23:19.003Z,28.42
2023-05-01T15:26:10.946Z,28.48
2023-05-01T15:29:03.458Z,28.51
2023-05-01T15:32:08.205Z,28.34
2023-05-01T15:35:03.642Z,28.36
2023-05-01T15:37:56.519Z,28.09
2023-05-01T15:40:49.863Z,28.09
2023-05-01T15:43:24.747Z,27.89
2023-05-01T15:46:18.245Z,27.85
2023-05-01T15:49:11.551Z,27.95
2023-05-01T15:52:03.810Z,28.22
2023-05-01T15:54:56.272Z,27.99
2023-05-01T15:57:30.886Z,28.21
2023-05-01T16:00:23.055Z,28.20
2023-05-01T16:03:16.153Z,28.37
2023-05-01T16:06:09.486Z,28.27
2023-05-01T16:09:01.999Z,28.34
2023-05-01T16:11:54.006Z,28.34
2023-05-01T16:14:46.423Z,28.20
2023-05-01T16:17:43.641Z,28.42
2023-05-01T16:20:42.308Z,28.44
2023-05-01T16:23:34.414Z,28.67
2023-05-01T16:26:28.756Z,28.43
2023-05-01T16:29:21.527Z,28.69
2023-05-01T16:32:14.063Z,28.70
2023-05-01T16:35:07.174Z,28.65
2023-05-01T16:38:00.428Z,28.70
2023-05-01T16:40:52.480Z,28.99
2023-05-01T16:43:44.487Z,29.19
2023-05-01T16:46:36.551Z,29.31
2023-05-01T16:49:29.398Z,29.37
2023-05-01T16:52:21.485Z,29.56
2023-05-01T16:55:13.834Z,29.70
2023-05-01T16:58:06.836Z,29.83
2023-05-01T17:00:59.505Z,29.93
2023-05-01T17:03:40.566Z,30.15
2023-05-01T17:06:32.681Z,30.42
2023-05-01T17:09:24.760Z,30.59
2023-05-01T17:12:17.587Z,30.73
2023-05-01T17:15:11.491Z,30.92
2023-05-01T17:18:03.697Z,31.05
2023-05-01T17:20:38.518Z,31.19
2023-05-01T17:23:30.852Z,31.20
2023-05-01T17:26:22.889Z,31.25
2023-05-01T17:29:15.207Z,31.36
2023-05-01T17:32:07.811Z,31.32
2023-05-01T17:35:00.155Z,31.55
2023-05-01T17:37:52.425Z,31.60
2023-05-01T17:40:44.643Z,31.85
2023-05-01T17:43:36.600Z,32.05
2023-05-01T17:46:28.720Z,32.31
2023-05-01T17:49:20.736Z,32.44
2023-05-01T17:52:12.753Z,32.47
2023-05-01T17:55:05.566Z,32.70
2023-05-01T17:57:57.492Z,32.74
2023-05-01T18:00:38.460Z,32.87
2023-05-01T18:03:32.444Z,32.80
2023-05-01T18:06:23.278Z,33.00
2023-05-01T18:09:15.298Z,33.08
2023-05-01T18:12:07.761Z,33.04
2023-05-01T18:14:59.948Z,33.03
2023-05-01T18:17:52.011Z,33.23
2023-05-01T18:20:44.075Z,33.40
2023-05-01T18:23:36.955Z,33.53
2023-05-01T18:26:29.404Z,33.47
2023-05-01T18:29:22.766Z,33.52
2023-05-01T18:32:14.918Z,33.67
2023-05-01T18:35:08.400Z,33.99
2023-05-01T18:38:00.503Z,34.12
2023-05-01T18:40:32.387Z,34.25
2023-05-01T18:43:24.362Z,34.28
2023-05-01T18:46:16.452Z,34.50
2023-05-01T18:49:08.624Z,34.36
2023-05-01T18:52:00.566Z,34.56
2023-05-01T18:54:52.625Z,34.82
2023-05-01T18:57:46.545Z,34.77
2023-05-01T19:00:38.623Z,34.92
2023-05-01T19:03:30.651Z,35.08
2023-05-01T19:06:06.007Z,35.37
2023-05-01T19:08:58.328Z,35.52
2023-05-01T19:11:51.323Z,35.58
2023-05-01T19:14:43.312Z,35.71
2023-05-01T19:17:17.963Z,35.94
2023-05-01T19:20:11.769Z,36.13
2023-05-01T19:23:03.745Z,36.33
2023-05-01T19:25:55.731Z,36.58
2023-05-01T19:28:47.828Z,36.80
2023-05-01T19:31:39.833Z,36.99
2023-05-01T19:34:31.933Z,36.99
2023-05-01T19:37:23.958Z,37.17
2023-05-01T19:40:16.940Z,37.64
2023-05-01T19:43:08.911Z,37.64
2023-05-01T19:46:00.954Z,37.66
2023-05-01T19:48:53.183Z,37.87
2023-05-01T19:51:45.832Z,38.22
2023-05-01T19:54:38.027Z,38.22
2023-05-01T19:57:29.996Z,38.46
2023-05-01T20:00:22.507Z,38.74
2023-05-01T20:03:15.637Z,38.97
2023-05-01T20:06:07.889Z,39.02
2023-05-01T20:08:59.907Z,39.30
2023-05-01T20:11:52.267Z,39.63
2023-05-01T20:14:44.267Z,39.98
2023-05-01T20:17:36.333Z,40.16
2023-05-01T20:20:28.314Z,40.34
2023-05-01T20:23:23.282Z,40.51
2023-05-01T20:26:15.261Z,40.69
2023-05-01T20:29:44.699Z,40.63
2023-05-01T20:32:36.775Z,40.96
2023-05-01T20:35:28.791Z,41.22
2023-05-01T20:38:21.595Z,41.65
2023-05-01T20:41:13.547Z,41.82
2023-05-01T20:44:06.884Z,41.90
2023-05-01T20:46:58.921Z,42.21
2023-05-01T20:49:50.876Z,42.30
2023-05-01T20:52:42.894Z,42.66
2023-05-01T20:55:34.859Z,42.70
2023-05-01T20:58:26.906Z,42.78
2023-05-01T21:01:18.920Z,43.03
2023-05-01T21:04:11.151Z,43.18
2023-05-01T21:07:03.194Z,43.38
2023-05-01T21:09:55.139Z,43.65
2023-05-01T21:12:47.135Z,43.73
2023-05-01T21:15:43.200Z,43.82
2023-05-01T21:18:36.280Z,43.99
2023-05-01T21:21:28.974Z,44.32
2023-05-01T21:24:24.642Z,44.42
2023-05-01T21:27:16.622Z,44.43
2023-05-01T21:30:14.893Z,44.86
2023-05-01T21:33:09.258Z,45.26
2023-05-01T21:35:59.670Z,45.52
2023-05-01T21:38:51.618Z,45.58
2023-05-01T21:41:44.458Z,45.54
2023-05-01T21:44:36.478Z,45.81
2023-05-01T21:47:19.831Z,46.00
2023-05-01T21:50:15.893Z,46.17
2023-05-01T21:53:08.408Z,46.54
2023-05-01T21:56:00.653Z,46.77
2023-05-01T21:58:52.736Z,47.03
2023-05-01T22:01:45.377Z,47.33
2023-05-01T22:04:38.057Z,47.52
2023-05-01T22:07:30.102Z,47.64
2023-05-01T22:10:22.095Z,47.84
2023-05-01T22:13:14.058Z,47.87
2023-05-01T22:16:06.509Z,48.07
2023-05-01T22:18:58.495Z,48.19
2023-05-01T22:21:50.748Z,48.31
2023-05-01T22:24:42.707Z,48.45
2023-05-01T22:27:34.854Z,48.70
2023-05-01T22:30:26.979Z,48.93
2023-05-01T22:33:18.968Z,49.31
2023-05-01T22:36:11.185Z,49.23
2023-05-01T22:39:03.848Z,49.27
2023-05-01T22:41:55.892Z,49.21
2023-05-01T22:44:48.206Z,49.26
2023-05-01T22:47:40.216Z,49.29
2023-05-01T22:50:32.174Z,49.43
2023-05-01T22:53:24.152Z,49.48
2023-05-01T22:56:16.277Z,49.65
2023-05-01T22:59:08.258Z,49.70
2023-05-01T23:02:02.408Z,49.87
2023-05-01T23:04:54.552Z,49.98
2023-05-01T23:07:46.683Z,50.17
2023-05-01T23:10:43.044Z,50.35
2023-05-01T23:13:34.994Z,50.43
2023-05-01T23:16:27.218Z,50.52
2023-05-01T23:19:25.196Z,50.39
2023-05-01T23:22:17.921Z,50.47
2023-05-01T23:25:15.959Z,50.77
2023-05-01T23:28:08.378Z,51.11
2023-05-01T23:31:02.503Z,51.31
2023-05-01T23:33:54.930Z,51.38
2023-05-01T23:36:48.452Z,51.60
2023-05-01T23:39:40.437Z,51.77
2023-05-01T23:42:32.689Z,51.90
2023-05-01T23:45:25.429Z,52.07
2023-05-01T23:48:17.573Z,52.25
2023-05-01T23:51:09.646Z,52.30
2023-05-01T23:54:04.196Z,52.43
2023-05-01T23:56:56.333Z,52.36
2023-05-01T23:59:48.344Z,52.51
